sensor_id;sensor_type;location;lat;lon;timestamp;pressure;altitude;pressure_sealevel;temperature;humidity
45813;BME280;31519;45.408;10.962;2023-12-04T00:00:09;101595.03;;;6.14;68.52
45813;BME280;31519;45.408;10.962;2023-12-04T00:03:00;101586.28;;;6.09;68.87
45813;BME280;31519;45.408;10.962;2023-12-04T00:05:28;101584.31;;;5.99;68.93
45813;BME280;31519;45.408;10.962;2023-12-04T00:07:58;101587.31;;;6.08;68.77
45813;BME280;31519;45.408;10.962;2023-12-04T00:10:26;101579.72;;;6.16;68.77
45813;BME280;31519;45.408;10.962;2023-12-04T00:12:54;101586.81;;;6.11;68.71
45813;BME280;31519;45.408;10.962;2023-12-04T00:15:23;101590.69;;;6.03;68.86
45813;BME280;31519;45.408;10.962;2023-12-04T00:17:51;101580.97;;;6.09;69.13
45813;BME280;31519;45.408;10.962;2023-12-04T00:20:19;101584.47;;;5.93;69.75
45813;BME280;31519;45.408;10.962;2023-12-04T00:22:47;101579.59;;;5.85;70.23
45813;BME280;31519;45.408;10.962;2023-12-04T00:25:16;101581.59;;;5.77;70.14
45813;BME280;31519;45.408;10.962;2023-12-04T00:27:43;101589.06;;;5.80;70.77
45813;BME280;31519;45.408;10.962;2023-12-04T00:30:12;101581.56;;;5.72;71.02
45813;BME280;31519;45.408;10.962;2023-12-04T00:32:41;101584.81;;;5.58;71.63
45813;BME280;31519;45.408;10.962;2023-12-04T00:35:10;101588.44;;;5.73;71.54
45813;BME280;31519;45.408;10.962;2023-12-04T00:37:38;101579.03;;;5.82;71.31
45813;BME280;31519;45.408;10.962;2023-12-04T00:40:07;101576.13;;;5.62;72.37
45813;BME280;31519;45.408;10.962;2023-12-04T00:42:35;101566.97;;;5.70;72.91
45813;BME280;31519;45.408;10.962;2023-12-04T00:45:04;101563.00;;;5.67;72.31
45813;BME280;31519;45.408;10.962;2023-12-04T00:47:32;101568.38;;;5.56;72.83
45813;BME280;31519;45.408;10.962;2023-12-04T00:50:00;101563.81;;;5.51;72.77
45813;BME280;31519;45.408;10.962;2023-12-04T00:52:29;101552.63;;;5.44;73.77
45813;BME280;31519;45.408;10.962;2023-12-04T00:54:57;101557.72;;;5.51;73.40
45813;BME280;31519;45.408;10.962;2023-12-04T00:57:25;101563.06;;;5.72;73.07
45813;BME280;31519;45.408;10.962;2023-12-04T00:59:54;101559.09;;;5.53;73.07
45813;BME280;31519;45.408;10.962;2023-12-04T01:02:22;101554.50;;;5.65;72.73
45813;BME280;31519;45.408;10.962;2023-12-04T01:04:50;101553.38;;;5.61;71.87
45813;BME280;31519;45.408;10.962;2023-12-04T01:07:18;101543.81;;;5.77;71.48
45813;BME280;31519;45.408;10.962;2023-12-04T01:09:46;101553.56;;;5.55;71.90
45813;BME280;31519;45.408;10.962;2023-12-04T01:12:14;101542.00;;;5.39;72.62
45813;BME280;31519;45.408;10.962;2023-12-04T01:14:43;101543.34;;;5.42;72.79
45813;BME280;31519;45.408;10.962;2023-12-04T01:17:11;101535.84;;;5.33;73.79
45813;BME280;31519;45.408;10.962;2023-12-04T01:19:39;101549.94;;;5.39;73.51
45813;BME280;31519;45.408;10.962;2023-12-04T01:22:07;101548.63;;;5.03;75.52
45813;BME280;31519;45.408;10.962;2023-12-04T01:24:35;101543.50;;;4.97;76.33
45813;BME280;31519;45.408;10.962;2023-12-04T01:27:04;101553.00;;;4.98;76.31
45813;BME280;31519;45.408;10.962;2023-12-04T01:29:32;101554.13;;;5.02;76.90
45813;BME280;31519;45.408;10.962;2023-12-04T01:32:00;101552.75;;;5.16;75.63
45813;BME280;31519;45.408;10.962;2023-12-04T01:34:28;101551.25;;;4.86;76.34
45813;BME280;31519;45.408;10.962;2023-12-04T01:36:56;101551.25;;;4.86;76.49
45813;BME280;31519;45.408;10.962;2023-12-04T01:39:24;101553.75;;;4.76;77.83
45813;BME280;31519;45.408;10.962;2023-12-04T01:41:52;101549.97;;;4.89;77.90
45813;BME280;31519;45.408;10.962;2023-12-04T01:44:21;101559.03;;;4.76;77.64
45813;BME280;31519;45.408;10.962;2023-12-04T01:46:50;101556.78;;;4.85;77.69
45813;BME280;31519;45.408;10.962;2023-12-04T01:49:18;101553.97;;;4.91;77.08
45813;BME280;31519;45.408;10.962;2023-12-04T01:51:47;101549.19;;;4.88;77.34
45813;BME280;31519;45.408;10.962;2023-12-04T01:54:16;101545.56;;;5.11;76.68
45813;BME280;31519;45.408;10.962;2023-12-04T01:56:44;101541.88;;;4.96;76.72
45813;BME280;31519;45.408;10.962;2023-12-04T01:59:14;101545.31;;;4.96;75.70
45813;BME280;31519;45.408;10.962;2023-12-04T02:01:42;101537.41;;;4.96;75.52
45813;BME280;31519;45.408;10.962;2023-12-04T02:04:10;101537.59;;;4.89;74.83
45813;BME280;31519;45.408;10.962;2023-12-04T02:06:40;101526.38;;;4.99;74.39
45813;BME280;31519;45.408;10.962;2023-12-04T02:09:09;101515.31;;;5.02;74.49
45813;BME280;31519;45.408;10.962;2023-12-04T02:11:40;101516.94;;;4.86;73.62
45813;BME280;31519;45.408;10.962;2023-12-04T02:14:08;101528.44;;;4.97;73.02
45813;BME280;31519;45.408;10.962;2023-12-04T02:16:40;101522.38;;;4.97;71.65
45813;BME280;31519;45.408;10.962;2023-12-04T02:19:12;101519.09;;;4.89;70.85
45813;BME280;31519;45.408;10.962;2023-12-04T02:21:41;101520.28;;;4.82;70.24
45813;BME280;31519;45.408;10.962;2023-12-04T02:24:09;101517.09;;;4.80;71.15
45813;BME280;31519;45.408;10.962;2023-12-04T02:26:56;101514.69;;;4.78;70.80
45813;BME280;31519;45.408;10.962;2023-12-04T02:29:37;101519.22;;;5.00;69.78
45813;BME280;31519;45.408;10.962;2023-12-04T02:32:07;101529.66;;;4.89;69.19
45813;BME280;31519;45.408;10.962;2023-12-04T02:34:40;101521.47;;;4.91;69.23
45813;BME280;31519;45.408;10.962;2023-12-04T02:37:10;101531.97;;;5.03;68.03
45813;BME280;31519;45.408;10.962;2023-12-04T02:39:39;101522.38;;;4.97;69.85
45813;BME280;31519;45.408;10.962;2023-12-04T02:42:07;101530.38;;;5.02;69.50
45813;BME280;31519;45.408;10.962;2023-12-04T02:44:36;101529.09;;;4.87;68.66
45813;BME280;31519;45.408;10.962;2023-12-04T02:47:03;101534.53;;;4.81;70.88
45813;BME280;31519;45.408;10.962;2023-12-04T02:49:32;101534.38;;;4.71;70.57
45813;BME280;31519;45.408;10.962;2023-12-04T02:52:00;101539.75;;;4.76;70.39
45813;BME280;31519;45.408;10.962;2023-12-04T02:54:28;101539.56;;;4.66;70.11
45813;BME280;31519;45.408;10.962;2023-12-04T02:56:57;101550.22;;;4.87;69.35
45813;BME280;31519;45.408;10.962;2023-12-04T02:59:25;101549.09;;;4.83;68.49
45813;BME280;31519;45.408;10.962;2023-12-04T03:01:53;101544.75;;;5.11;66.94
45813;BME280;31519;45.408;10.962;2023-12-04T03:04:21;101551.34;;;5.08;65.40
45813;BME280;31519;45.408;10.962;2023-12-04T03:06:49;101544.78;;;4.94;66.27
45813;BME280;31519;45.408;10.962;2023-12-04T03:09:17;101534.31;;;4.99;65.72
45813;BME280;31519;45.408;10.962;2023-12-04T03:11:45;101537.91;;;4.93;65.26
45813;BME280;31519;45.408;10.962;2023-12-04T03:14:13;101539.25;;;4.79;65.23
45813;BME280;31519;45.408;10.962;2023-12-04T03:16:42;101529.78;;;5.00;64.36
45813;BME280;31519;45.408;10.962;2023-12-04T03:19:10;101532.78;;;4.70;64.50
45813;BME280;31519;45.408;10.962;2023-12-04T03:21:38;101532.41;;;4.50;64.85
45813;BME280;31519;45.408;10.962;2023-12-04T03:24:06;101537.75;;;4.66;64.51
45813;BME280;31519;45.408;10.962;2023-12-04T03:26:36;101527.25;;;4.71;65.36
45813;BME280;31519;45.408;10.962;2023-12-04T03:29:05;101517.72;;;4.87;65.23
45813;BME280;31519;45.408;10.962;2023-12-04T03:31:33;101516.47;;;4.89;64.93
45813;BME280;31519;45.408;10.962;2023-12-04T03:34:02;101507.81;;;4.94;65.62
45813;BME280;31519;45.408;10.962;2023-12-04T03:36:30;101515.09;;;4.54;67.16
45813;BME280;31519;45.408;10.962;2023-12-04T03:38:59;101507.19;;;4.54;68.74
45813;BME280;31519;45.408;10.962;2023-12-04T03:41:27;101507.66;;;4.51;68.58
45813;BME280;31519;45.408;10.962;2023-12-04T03:43:55;101505.41;;;4.42;70.06
45813;BME280;31519;45.408;10.962;2023-12-04T03:46:23;101502.41;;;4.67;69.43
45813;BME280;31519;45.408;10.962;2023-12-04T03:48:52;101500.63;;;4.39;69.60
45813;BME280;31519;45.408;10.962;2023-12-04T03:51:20;101499.16;;;4.32;70.73
45813;BME280;31519;45.408;10.962;2023-12-04T03:53:51;101503.97;;;4.35;70.28
45813;BME280;31519;45.408;10.962;2023-12-04T03:56:19;101496.28;;;4.33;71.22
45813;BME280;31519;45.408;10.962;2023-12-04T03:58:48;101499.25;;;4.37;71.82
45813;BME280;31519;45.408;10.962;2023-12-04T04:01:16;101493.75;;;4.55;71.70
45813;BME280;31519;45.408;10.962;2023-12-04T04:03:44;101495.19;;;4.63;71.03
45813;BME280;31519;45.408;10.962;2023-12-04T04:06:13;101495.00;;;4.36;71.72
45813;BME280;31519;45.408;10.962;2023-12-04T04:08:42;101501.81;;;4.49;71.42
45813;BME280;31519;45.408;10.962;2023-12-04T04:11:10;101497.81;;;4.29;73.77
45813;BME280;31519;45.408;10.962;2023-12-04T04:13:39;101496.06;;;4.52;73.42
45813;BME280;31519;45.408;10.962;2023-12-04T04:16:08;101492.53;;;4.29;73.95
45813;BME280;31519;45.408;10.962;2023-12-04T04:18:40;101493.16;;;4.36;74.46
45813;BME280;31519;45.408;10.962;2023-12-04T04:21:09;101498.22;;;4.38;73.84
45813;BME280;31519;45.408;10.962;2023-12-04T04:23:37;101496.91;;;4.40;74.31
45813;BME280;31519;45.408;10.962;2023-12-04T04:26:05;101497.34;;;4.66;73.19
45813;BME280;31519;45.408;10.962;2023-12-04T04:28:34;101504.47;;;4.49;73.65
45813;BME280;31519;45.408;10.962;2023-12-04T04:31:02;101496.31;;;4.22;74.17
45813;BME280;31519;45.408;10.962;2023-12-04T04:33:30;101506.09;;;4.21;73.66
45813;BME280;31519;45.408;10.962;2023-12-04T04:35:58;101501.28;;;3.90;74.45
45813;BME280;31519;45.408;10.962;2023-12-04T04:38:27;101497.34;;;3.76;75.64
45813;BME280;31519;45.408;10.962;2023-12-04T04:40:54;101501.06;;;3.91;75.33
45813;BME280;31519;45.408;10.962;2023-12-04T04:43:24;101493.13;;;4.03;75.04
45813;BME280;31519;45.408;10.962;2023-12-04T04:45:52;101486.75;;;4.16;74.69
45813;BME280;31519;45.408;10.962;2023-12-04T04:48:21;101487.69;;;4.10;74.94
45813;BME280;31519;45.408;10.962;2023-12-04T04:50:49;101484.81;;;4.11;75.62
45813;BME280;31519;45.408;10.962;2023-12-04T04:53:17;101482.56;;;4.48;74.52
45813;BME280;31519;45.408;10.962;2023-12-04T04:55:45;101483.59;;;4.30;73.92
45813;BME280;31519;45.408;10.962;2023-12-04T04:58:17;101483.63;;;4.19;73.90
45813;BME280;31519;45.408;10.962;2023-12-04T05:00:46;101474.06;;;4.29;73.32
45813;BME280;31519;45.408;10.962;2023-12-04T05:03:15;101473.53;;;4.44;72.95
45813;BME280;31519;45.408;10.962;2023-12-04T05:05:44;101467.91;;;4.24;73.51
45813;BME280;31519;45.408;10.962;2023-12-04T05:08:12;101470.16;;;4.49;73.08
45813;BME280;31519;45.408;10.962;2023-12-04T05:10:40;101463.50;;;4.29;73.50
45813;BME280;31519;45.408;10.962;2023-12-04T05:13:08;101452.75;;;4.47;73.65
45813;BME280;31519;45.408;10.962;2023-12-04T05:15:37;101450.47;;;4.23;74.36
45813;BME280;31519;45.408;10.962;2023-12-04T05:18:05;101450.16;;;4.36;74.24
45813;BME280;31519;45.408;10.962;2023-12-04T05:20:33;101456.81;;;4.55;73.32
45813;BME280;31519;45.408;10.962;2023-12-04T05:23:02;101449.69;;;4.39;74.49
45813;BME280;31519;45.408;10.962;2023-12-04T05:25:30;101445.06;;;4.46;74.07
45813;BME280;31519;45.408;10.962;2023-12-04T05:28:08;101443.75;;;4.32;74.33
45813;BME280;31519;45.408;10.962;2023-12-04T05:30:36;101433.56;;;4.52;74.20
45813;BME280;31519;45.408;10.962;2023-12-04T05:33:05;101431.41;;;4.49;74.97
45813;BME280;31519;45.408;10.962;2023-12-04T05:35:33;101440.81;;;4.45;75.41
45813;BME280;31519;45.408;10.962;2023-12-04T05:38:03;101440.34;;;4.48;76.01
45813;BME280;31519;45.408;10.962;2023-12-04T05:40:31;101449.88;;;4.49;76.42
45813;BME280;31519;45.408;10.962;2023-12-04T05:42:59;101447.69;;;4.46;76.36
45813;BME280;31519;45.408;10.962;2023-12-04T05:45:27;101445.44;;;4.55;75.89
45813;BME280;31519;45.408;10.962;2023-12-04T05:47:56;101445.69;;;4.70;75.22
45813;BME280;31519;45.408;10.962;2023-12-04T05:50:24;101449.69;;;4.56;75.36
45813;BME280;31519;45.408;10.962;2023-12-04T05:52:52;101453.22;;;4.44;75.79
45813;BME280;31519;45.408;10.962;2023-12-04T05:55:20;101459.69;;;4.37;76.77
45813;BME280;31519;45.408;10.962;2023-12-04T05:57:48;101456.31;;;4.25;77.43
45813;BME280;31519;45.408;10.962;2023-12-04T06:00:17;101458.91;;;4.53;76.55
45813;BME280;31519;45.408;10.962;2023-12-04T06:02:45;101463.19;;;4.59;76.27
45813;BME280;31519;45.408;10.962;2023-12-04T06:05:13;101463.81;;;4.83;74.67
45813;BME280;31519;45.408;10.962;2023-12-04T06:07:42;101464.97;;;4.54;74.78
45813;BME280;31519;45.408;10.962;2023-12-04T06:10:10;101469.44;;;4.53;75.32
45813;BME280;31519;45.408;10.962;2023-12-04T06:12:40;101464.31;;;4.63;74.77
45813;BME280;31519;45.408;10.962;2023-12-04T06:15:08;101479.13;;;4.47;74.78
45813;BME280;31519;45.408;10.962;2023-12-04T06:17:36;101485.56;;;4.40;74.10
45813;BME280;31519;45.408;10.962;2023-12-04T06:20:06;101485.50;;;4.35;74.28
45813;BME280;31519;45.408;10.962;2023-12-04T06:22:35;101486.00;;;4.65;72.22
45813;BME280;31519;45.408;10.962;2023-12-04T06:25:03;101493.75;;;4.55;71.09
45813;BME280;31519;45.408;10.962;2023-12-04T06:27:32;101484.63;;;4.29;71.54
45813;BME280;31519;45.408;10.962;2023-12-04T06:30:00;101497.38;;;4.21;72.55
45813;BME280;31519;45.408;10.962;2023-12-04T06:32:29;101492.34;;;4.19;72.73
45813;BME280;31519;45.408;10.962;2023-12-04T06:34:57;101504.09;;;4.28;72.56
45813;BME280;31519;45.408;10.962;2023-12-04T06:37:25;101501.34;;;4.52;71.30
45813;BME280;31519;45.408;10.962;2023-12-04T06:39:54;101502.09;;;4.35;71.44
45813;BME280;31519;45.408;10.962;2023-12-04T06:42:23;101505.63;;;4.41;72.23
45813;BME280;31519;45.408;10.962;2023-12-04T06:44:51;101506.84;;;4.50;70.08
45813;BME280;31519;45.408;10.962;2023-12-04T06:47:23;101498.56;;;4.58;69.18
45813;BME280;31519;45.408;10.962;2023-12-04T06:49:51;101505.31;;;4.54;70.06
45813;BME280;31519;45.408;10.962;2023-12-04T06:52:19;101494.06;;;4.59;70.33
45813;BME280;31519;45.408;10.962;2023-12-04T06:54:47;101495.28;;;4.84;70.13
45813;BME280;31519;45.408;10.962;2023-12-04T06:57:16;101495.72;;;4.98;70.34
45813;BME280;31519;45.408;10.962;2023-12-04T06:59:44;101484.78;;;5.28;68.77
45813;BME280;31519;45.408;10.962;2023-12-04T07:02:12;101489.69;;;5.19;68.41
45813;BME280;31519;45.408;10.962;2023-12-04T07:04:40;101474.44;;;5.05;68.59
45813;BME280;31519;45.408;10.962;2023-12-04T07:07:08;101475.94;;;5.17;68.66
45813;BME280;31519;45.408;10.962;2023-12-04T07:09:36;101465.88;;;5.36;68.23
45813;BME280;31519;45.408;10.962;2023-12-04T07:12:05;101461.94;;;5.17;69.43
45813;BME280;31519;45.408;10.962;2023-12-04T07:14:34;101467.97;;;4.96;69.87
45813;BME280;31519;45.408;10.962;2023-12-04T07:17:02;101474.22;;;4.89;69.81
45813;BME280;31519;45.408;10.962;2023-12-04T07:19:30;101471.25;;;4.86;70.13
45813;BME280;31519;45.408;10.962;2023-12-04T07:21:58;101475.81;;;4.90;70.42
45813;BME280;31519;45.408;10.962;2023-12-04T07:24:26;101476.41;;;4.76;70.12
45813;BME280;31519;45.408;10.962;2023-12-04T07:26:55;101484.44;;;4.86;70.70
45813;BME280;31519;45.408;10.962;2023-12-04T07:29:23;101479.97;;;4.86;69.61
45813;BME280;31519;45.408;10.962;2023-12-04T07:31:51;101484.44;;;5.03;69.73
45813;BME280;31519;45.408;10.962;2023-12-04T07:34:19;101496.47;;;4.94;70.05
45813;BME280;31519;45.408;10.962;2023-12-04T07:36:48;101492.69;;;4.73;70.29
45813;BME280;31519;45.408;10.962;2023-12-04T07:39:16;101492.47;;;4.74;72.06
45813;BME280;31519;45.408;10.962;2023-12-04T07:41:44;101500.03;;;4.54;72.10
45813;BME280;31519;45.408;10.962;2023-12-04T07:44:13;101492.56;;;4.18;72.60
45813;BME280;31519;45.408;10.962;2023-12-04T07:46:41;101496.44;;;3.70;75.43
45813;BME280;31519;45.408;10.962;2023-12-04T07:49:09;101501.34;;;3.67;75.83
45813;BME280;31519;45.408;10.962;2023-12-04T07:51:38;101492.34;;;3.91;74.51
45813;BME280;31519;45.408;10.962;2023-12-04T07:54:05;101490.81;;;3.67;75.49
45813;BME280;31519;45.408;10.962;2023-12-04T07:56:34;101488.34;;;3.88;73.71
45813;BME280;31519;45.408;10.962;2023-12-04T07:59:02;101494.75;;;3.92;73.76
45813;BME280;31519;45.408;10.962;2023-12-04T08:01:30;101497.84;;;4.18;72.88
45813;BME280;31519;45.408;10.962;2023-12-04T08:03:59;101503.28;;;4.11;72.75
45813;BME280;31519;45.408;10.962;2023-12-04T08:06:27;101495.50;;;4.05;73.83
45813;BME280;31519;45.408;10.962;2023-12-04T08:08:56;101487.16;;;3.68;74.94
45813;BME280;31519;45.408;10.962;2023-12-04T08:11:25;101491.78;;;3.49;76.91
45813;BME280;31519;45.408;10.962;2023-12-04T08:13:53;101493.81;;;3.58;77.98
45813;BME280;31519;45.408;10.962;2023-12-04T08:16:21;101499.16;;;4.03;76.53
45813;BME280;31519;45.408;10.962;2023-12-04T08:18:49;101507.97;;;4.37;74.84
45813;BME280;31519;45.408;10.962;2023-12-04T08:21:18;101497.00;;;4.29;74.02
45813;BME280;31519;45.408;10.962;2023-12-04T08:23:46;101495.34;;;4.73;72.85
45813;BME280;31519;45.408;10.962;2023-12-04T08:26:21;101492.53;;;4.46;72.29
45813;BME280;31519;45.408;10.962;2023-12-04T08:28:51;101492.06;;;4.66;71.28
45813;BME280;31519;45.408;10.962;2023-12-04T08:31:19;101495.44;;;4.44;71.23
45813;BME280;31519;45.408;10.962;2023-12-04T08:33:47;101495.34;;;4.39;71.92
45813;BME280;31519;45.408;10.962;2023-12-04T08:36:16;101498.94;;;4.05;72.52
45813;BME280;31519;45.408;10.962;2023-12-04T08:38:44;101489.31;;;4.27;72.76
45813;BME280;31519;45.408;10.962;2023-12-04T08:41:12;101490.19;;;4.16;72.88
45813;BME280;31519;45.408;10.962;2023-12-04T08:43:40;101498.22;;;4.38;71.95
45813;BME280;31519;45.408;10.962;2023-12-04T08:46:15;101484.78;;;4.56;71.31
45813;BME280;31519;45.408;10.962;2023-12-04T08:48:43;101481.28;;;4.84;69.73
45813;BME280;31519;45.408;10.962;2023-12-04T08:51:16;101462.94;;;4.77;69.32
45813;BME280;31519;45.408;10.962;2023-12-04T08:53:44;101458.28;;;5.01;69.51
45813;BME280;31519;45.408;10.962;2023-12-04T08:56:12;101450.88;;;5.20;69.19
45813;BME280;31519;45.408;10.962;2023-12-04T08:58:48;101448.59;;;5.50;67.83
45813;BME280;31519;45.408;10.962;2023-12-04T09:01:18;101455.38;;;5.63;66.91
45813;BME280;31519;45.408;10.962;2023-12-04T09:03:46;101442.16;;;5.41;65.82
45813;BME280;31519;45.408;10.962;2023-12-04T09:06:15;101458.84;;;5.68;65.16
45813;BME280;31519;45.408;10.962;2023-12-04T09:08:43;101462.56;;;5.89;63.38
45813;BME280;31519;45.408;10.962;2023-12-04T09:11:23;101459.47;;;5.75;63.60
45813;BME280;31519;45.408;10.962;2023-12-04T09:13:51;101470.03;;;5.75;64.16
45813;BME280;31519;45.408;10.962;2023-12-04T09:16:20;101466.94;;;5.84;64.01
45813;BME280;31519;45.408;10.962;2023-12-04T09:18:48;101456.44;;;6.15;63.63
45813;BME280;31519;45.408;10.962;2023-12-04T09:21:17;101451.97;;;6.16;63.05
45813;BME280;31519;45.408;10.962;2023-12-04T09:23:45;101457.31;;;6.21;62.80
45813;BME280;31519;45.408;10.962;2023-12-04T09:26:18;101457.50;;;6.14;63.47
45813;BME280;31519;45.408;10.962;2023-12-04T09:28:46;101454.16;;;6.24;63.87
45813;BME280;31519;45.408;10.962;2023-12-04T09:31:15;101446.59;;;6.38;63.68
45813;BME280;31519;45.408;10.962;2023-12-04T09:33:43;101442.75;;;6.55;62.71
45813;BME280;31519;45.408;10.962;2023-12-04T09:36:11;101443.16;;;6.74;61.90
45813;BME280;31519;45.408;10.962;2023-12-04T09:38:39;101440.94;;;6.61;61.95
45813;BME280;31519;45.408;10.962;2023-12-04T09:41:10;101447.00;;;6.56;63.08
45813;BME280;31519;45.408;10.962;2023-12-04T09:43:40;101451.59;;;6.71;62.56
45813;BME280;31519;45.408;10.962;2023-12-04T09:46:09;101454.13;;;6.56;63.70
45813;BME280;31519;45.408;10.962;2023-12-04T09:48:38;101446.91;;;6.41;64.71
45813;BME280;31519;45.408;10.962;2023-12-04T09:51:09;101445.47;;;6.65;64.08
45813;BME280;31519;45.408;10.962;2023-12-04T09:53:39;101440.94;;;6.61;63.96
45813;BME280;31519;45.408;10.962;2023-12-04T09:56:09;101439.97;;;6.35;64.74
45813;BME280;31519;45.408;10.962;2023-12-04T09:58:40;101440.47;;;6.32;65.27
45813;BME280;31519;45.408;10.962;2023-12-04T10:01:10;101445.34;;;6.45;64.43
45813;BME280;31519;45.408;10.962;2023-12-04T10:03:40;101443.19;;;6.10;65.21
45813;BME280;31519;45.408;10.962;2023-12-04T10:06:11;101429.19;;;6.15;65.44
45813;BME280;31519;45.408;10.962;2023-12-04T10:08:45;101427.25;;;6.00;68.26
45813;BME280;31519;45.408;10.962;2023-12-04T10:11:13;101405.03;;;5.53;70.53
45813;BME280;31519;45.408;10.962;2023-12-04T10:13:41;101382.09;;;5.85;69.86
45813;BME280;31519;45.408;10.962;2023-12-04T10:16:36;101365.34;;;5.74;68.73
45813;BME280;31519;45.408;10.962;2023-12-04T10:19:37;101345.69;;;6.24;67.63
45813;BME280;31519;45.408;10.962;2023-12-04T10:22:08;101341.47;;;6.28;65.85
45813;BME280;31519;45.408;10.962;2023-12-04T10:24:39;101329.09;;;6.34;63.73
45813;BME280;31519;45.408;10.962;2023-12-04T10:27:08;101320.25;;;6.65;62.34
45813;BME280;31519;45.408;10.962;2023-12-04T10:29:47;101323.19;;;6.63;61.10
45813;BME280;31519;45.408;10.962;2023-12-04T10:32:20;101326.81;;;6.52;60.25
45813;BME280;31519;45.408;10.962;2023-12-04T10:34:50;101330.47;;;6.46;60.36
45813;BME280;31519;45.408;10.962;2023-12-04T10:37:19;101333.78;;;6.63;60.59
45813;BME280;31519;45.408;10.962;2023-12-04T10:39:48;101332.63;;;6.49;61.43
45813;BME280;31519;45.408;10.962;2023-12-04T10:42:25;101332.38;;;6.56;62.65
45813;BME280;31519;45.408;10.962;2023-12-04T10:44:57;101331.66;;;6.65;62.75
45813;BME280;31519;45.408;10.962;2023-12-04T10:47:29;101329.47;;;6.52;62.89
45813;BME280;31519;45.408;10.962;2023-12-04T10:50:01;101318.94;;;6.20;64.05
45813;BME280;31519;45.408;10.962;2023-12-04T10:52:31;101316.69;;;6.39;64.36
45813;BME280;31519;45.408;10.962;2023-12-04T10:55:00;101331.84;;;6.54;63.68
45813;BME280;31519;45.408;10.962;2023-12-04T10:57:37;101317.56;;;6.50;64.24
45813;BME280;31519;45.408;10.962;2023-12-04T11:00:08;101315.66;;;6.45;65.20
45813;BME280;31519;45.408;10.962;2023-12-04T11:02:39;101313.38;;;6.64;64.71
45813;BME280;31519;45.408;10.962;2023-12-04T11:05:16;101308.13;;;6.74;65.11
45813;BME280;31519;45.408;10.962;2023-12-04T11:07:52;101308.44;;;6.78;64.99
45813;BME280;31519;45.408;10.962;2023-12-04T11:11:04;101299.66;;;6.72;66.29
45813;BME280;31519;45.408;10.962;2023-12-04T11:13:42;101291.97;;;6.71;66.79
45813;BME280;31519;45.408;10.962;2023-12-04T11:18:50;101279.31;;;6.78;65.69
45813;BME280;31519;45.408;10.962;2023-12-04T11:21:19;101280.69;;;7.00;64.41
45813;BME280;31519;45.408;10.962;2023-12-04T11:23:49;101280.47;;;7.22;62.65
45813;BME280;31519;45.408;10.962;2023-12-04T11:26:18;101259.03;;;7.49;62.39
45813;BME280;31519;45.408;10.962;2023-12-04T11:28:48;101261.72;;;7.64;61.06
45813;BME280;31519;45.408;10.962;2023-12-04T11:31:17;101260.88;;;7.84;59.55
45813;BME280;31519;45.408;10.962;2023-12-04T11:33:45;101256.94;;;7.56;59.35
45813;BME280;31519;45.408;10.962;2023-12-04T11:36:15;101255.06;;;7.67;59.23
45813;BME280;31519;45.408;10.962;2023-12-04T11:38:45;101257.16;;;7.29;60.95
45813;BME280;31519;45.408;10.962;2023-12-04T11:41:24;101255.88;;;7.87;59.44
45813;BME280;31519;45.408;10.962;2023-12-04T11:43:55;101254.50;;;8.10;58.27
45813;BME280;31519;45.408;10.962;2023-12-04T11:46:26;101253.97;;;7.93;58.16
45813;BME280;31519;45.408;10.962;2023-12-04T11:48:57;101255.59;;;7.69;57.90
45813;BME280;31519;45.408;10.962;2023-12-04T11:51:45;101259.28;;;7.98;58.44
45813;BME280;31519;45.408;10.962;2023-12-04T11:54:17;101241.00;;;7.66;58.55
45813;BME280;31519;45.408;10.962;2023-12-04T11:59:38;101239.91;;;7.97;58.53
45813;BME280;31519;45.408;10.962;2023-12-04T12:02:08;101227.50;;;7.57;59.19
45813;BME280;31519;45.408;10.962;2023-12-04T12:04:38;101225.59;;;7.93;58.95
45813;BME280;31519;45.408;10.962;2023-12-04T12:07:06;101224.53;;;8.05;58.27
45813;BME280;31519;45.408;10.962;2023-12-04T12:09:35;101210.47;;;7.99;57.43
45813;BME280;31519;45.408;10.962;2023-12-04T12:12:04;101211.56;;;7.88;58.49
45813;BME280;31519;45.408;10.962;2023-12-04T12:14:33;101210.28;;;7.65;58.37
45813;BME280;31519;45.408;10.962;2023-12-04T12:17:01;101197.81;;;7.50;59.71
45813;BME280;31519;45.408;10.962;2023-12-04T12:19:30;101207.34;;;7.77;58.95
45813;BME280;31519;45.408;10.962;2023-12-04T12:21:58;101202.03;;;7.77;58.48
45813;BME280;31519;45.408;10.962;2023-12-04T12:24:29;101195.44;;;7.49;59.37
45813;BME280;31519;45.408;10.962;2023-12-04T12:26:57;101206.78;;;7.75;59.07
45813;BME280;31519;45.408;10.962;2023-12-04T12:29:27;101202.28;;;7.80;56.56
45813;BME280;31519;45.408;10.962;2023-12-04T12:31:55;101204.13;;;7.95;56.38
45813;BME280;31519;45.408;10.962;2023-12-04T12:34:23;101200.41;;;7.91;57.18
45813;BME280;31519;45.408;10.962;2023-12-04T12:36:52;101196.16;;;7.90;55.46
45813;BME280;31519;45.408;10.962;2023-12-04T12:39:21;101183.72;;;7.85;56.19
45813;BME280;31519;45.408;10.962;2023-12-04T12:41:50;101184.03;;;7.58;57.44
45813;BME280;31519;45.408;10.962;2023-12-04T12:44:18;101182.97;;;7.60;57.03
45813;BME280;31519;45.408;10.962;2023-12-04T12:46:51;101176.34;;;7.47;58.80
45813;BME280;31519;45.408;10.962;2023-12-04T12:49:19;101155.06;;;7.87;57.19
45813;BME280;31519;45.408;10.962;2023-12-04T12:52:06;101154.78;;;7.89;57.20
45813;BME280;31519;45.408;10.962;2023-12-04T12:54:40;101161.69;;;7.95;54.96
45813;BME280;31519;45.408;10.962;2023-12-04T12:57:10;101154.59;;;7.65;56.04
45813;BME280;31519;45.408;10.962;2023-12-04T12:59:39;101159.28;;;7.93;54.91
45813;BME280;31519;45.408;10.962;2023-12-04T13:02:07;101162.50;;;7.80;55.85
45813;BME280;31519;45.408;10.962;2023-12-04T13:04:45;101156.97;;;7.72;56.82
45813;BME280;31519;45.408;10.962;2023-12-04T13:07:14;101166.25;;;7.69;58.25